Kilbourne, LA

6:23 AM CST on December 20, 2014 (GMT -0600)
Bastrop | Change Station
CLOSE
Current Station
Airport
Location: Bastrop,
Elevation: 167 ft
Nearby Weather Stations

Elev 167 ft 32.76 °N, 91.88 °W | Updated 28 minutes ago

Partly Cloudy
Partly Cloudy
39 °F
Feels Like 37 °F
N
4
Wind Variable Wind from North

Today
High -- | Low -- °F
--% Chance of Precip.
Yesterday
High -- | Low -- °F
Precip. -- in
7:03 AM 5:02 PM
Waning Crescent, 3% visible
Pressure 30.22 in
Visibility 4.0 miles
Clouds Scattered Clouds 300 ft
Windchill 37 °F
Dew Point 38 °F
Humidity 97%
Rainfall 0.00 in
Snow Depth Not available.
UV 0 out of 12
Pollen 1.20 out of 12
Air Quality Not available.
Flu Activity Not available.
METAR KBQP 201155Z AUTO 35003KT 4SM BR SCT003 04/04 A3022 RMK AO2 70022 T00400036 10065 20029

More Conditions Fewer Conditions

Pressure 30.22 in
Visibility 4.0 miles
Clouds Scattered Clouds 300 ft
Windchill 37 °F
Dew Point 38 °F
Humidity 97%
Rainfall 0.00 in
Snow Depth Not available.
UV 0 out of 12
Pollen 1.20 out of 12
Air Quality Not available.
Flu Activity Not available.
METAR KBQP 201155Z AUTO 35003KT 4SM BR SCT003 04/04 A3022 RMK AO2 70022 T00400036 10065 20029

More Conditions Fewer Conditions

10-Day Weather Forecast

Almanac

Astronomy

Dec. 20, 2014 Rise Set
Actual Time
Civil Twilight
Nautical Twilight
Astronomical Twilight
Moon
Length of Visible Light
Length of Day
Tomorrow will be .
, % of the Moon is Illuminated

Today's Extremes

State Highs State Lows

Community

WunderPhotos

Upload Photos

1,779,163 photos uploaded!

WunderBlogs® & News

Nearby

Air Quality

  Air Quality AQ Index Pollutant
Not available.

Snow Depth

Station Depth Elevation

Earthquake Activity

City Distance Mag. Time & Date
Minimum magnitude displayed is 2.5.

Coastal Water Temperatures

Place Temperature

Nearby Weather Stations